sensor_id;sensor_type;location;lat;lon;timestamp;temperature;humidity
76537;DHT22;65381;51.254;15.592;2023-10-08T00:01:33;11.10;73.30
76537;DHT22;65381;51.254;15.592;2023-10-08T00:04:01;11.00;73.30
76537;DHT22;65381;51.254;15.592;2023-10-08T00:06:32;11.00;73.40
76537;DHT22;65381;51.254;15.592;2023-10-08T00:09:01;11.00;73.60
76537;DHT22;65381;51.254;15.592;2023-10-08T00:11:39;10.90;73.70
76537;DHT22;65381;51.254;15.592;2023-10-08T00:14:08;10.90;73.70
76537;DHT22;65381;51.254;15.592;2023-10-08T00:16:38;10.90;73.70
76537;DHT22;65381;51.254;15.592;2023-10-08T00:19:07;10.90;73.70
76537;DHT22;65381;51.254;15.592;2023-10-08T00:21:36;10.90;73.80
76537;DHT22;65381;51.254;15.592;2023-10-08T00:24:06;10.90;73.80
76537;DHT22;65381;51.254;15.592;2023-10-08T00:26:34;10.90;73.90
76537;DHT22;65381;51.254;15.592;2023-10-08T00:29:09;10.90;73.80
76537;DHT22;65381;51.254;15.592;2023-10-08T00:31:49;10.90;73.80
76537;DHT22;65381;51.254;15.592;2023-10-08T00:34:18;10.90;73.80
76537;DHT22;65381;51.254;15.592;2023-10-08T00:36:49;10.90;73.70
76537;DHT22;65381;51.254;15.592;2023-10-08T00:39:17;10.90;73.70
76537;DHT22;65381;51.254;15.592;2023-10-08T00:41:52;10.80;73.70
76537;DHT22;65381;51.254;15.592;2023-10-08T00:44:28;10.80;74.00
76537;DHT22;65381;51.254;15.592;2023-10-08T00:47:04;10.70;74.20
76537;DHT22;65381;51.254;15.592;2023-10-08T00:49:34;10.70;74.40
76537;DHT22;65381;51.254;15.592;2023-10-08T00:52:14;10.70;74.50
76537;DHT22;65381;51.254;15.592;2023-10-08T00:54:43;10.60;74.60
76537;DHT22;65381;51.254;15.592;2023-10-08T00:57:34;10.70;74.70
76537;DHT22;65381;51.254;15.592;2023-10-08T01:00:05;10.70;74.80
76537;DHT22;65381;51.254;15.592;2023-10-08T01:02:44;10.70;75.10
76537;DHT22;65381;51.254;15.592;2023-10-08T01:05:23;10.80;75.40
76537;DHT22;65381;51.254;15.592;2023-10-08T01:07:56;10.80;75.50
76537;DHT22;65381;51.254;15.592;2023-10-08T01:10:27;10.80;76.00
76537;DHT22;65381;51.254;15.592;2023-10-08T01:12:54;10.90;76.40
76537;DHT22;65381;51.254;15.592;2023-10-08T01:15:22;10.90;76.60
76537;DHT22;65381;51.254;15.592;2023-10-08T01:17:57;11.00;77.00
76537;DHT22;65381;51.254;15.592;2023-10-08T01:20:29;11.00;77.10
76537;DHT22;65381;51.254;15.592;2023-10-08T01:23:17;11.00;77.20
76537;DHT22;65381;51.254;15.592;2023-10-08T01:25:49;10.90;77.40
76537;DHT22;65381;51.254;15.592;2023-10-08T01:28:20;10.90;77.60
76537;DHT22;65381;51.254;15.592;2023-10-08T01:30:54;10.90;77.90
76537;DHT22;65381;51.254;15.592;2023-10-08T01:33:25;10.80;78.20
76537;DHT22;65381;51.254;15.592;2023-10-08T01:35:56;10.90;78.40
76537;DHT22;65381;51.254;15.592;2023-10-08T01:38:32;10.90;78.50
76537;DHT22;65381;51.254;15.592;2023-10-08T01:41:03;10.90;78.70
76537;DHT22;65381;51.254;15.592;2023-10-08T01:43:37;10.90;78.90
76537;DHT22;65381;51.254;15.592;2023-10-08T01:46:06;10.80;79.10
76537;DHT22;65381;51.254;15.592;2023-10-08T01:48:39;10.80;79.20
76537;DHT22;65381;51.254;15.592;2023-10-08T01:51:07;10.80;79.30
76537;DHT22;65381;51.254;15.592;2023-10-08T01:53:39;10.80;79.50
76537;DHT22;65381;51.254;15.592;2023-10-08T01:56:07;10.80;79.70
76537;DHT22;65381;51.254;15.592;2023-10-08T01:58:38;10.80;79.70
76537;DHT22;65381;51.254;15.592;2023-10-08T02:01:06;10.90;79.90
76537;DHT22;65381;51.254;15.592;2023-10-08T02:03:39;10.80;80.00
76537;DHT22;65381;51.254;15.592;2023-10-08T02:06:10;10.90;79.90
76537;DHT22;65381;51.254;15.592;2023-10-08T02:08:40;10.80;79.90
76537;DHT22;65381;51.254;15.592;2023-10-08T02:11:09;10.70;79.80
76537;DHT22;65381;51.254;15.592;2023-10-08T02:13:38;10.50;80.00
76537;DHT22;65381;51.254;15.592;2023-10-08T02:16:06;10.40;80.10
76537;DHT22;65381;51.254;15.592;2023-10-08T02:18:34;10.30;80.40
76537;DHT22;65381;51.254;15.592;2023-10-08T02:21:03;10.30;80.60
76537;DHT22;65381;51.254;15.592;2023-10-08T02:23:33;10.20;80.60
76537;DHT22;65381;51.254;15.592;2023-10-08T02:26:02;10.10;80.60
76537;DHT22;65381;51.254;15.592;2023-10-08T02:28:30;10.00;80.50
76537;DHT22;65381;51.254;15.592;2023-10-08T02:30:59;9.70;80.50
76537;DHT22;65381;51.254;15.592;2023-10-08T02:33:26;9.60;80.70
76537;DHT22;65381;51.254;15.592;2023-10-08T02:35:55;9.40;81.00
76537;DHT22;65381;51.254;15.592;2023-10-08T02:38:23;9.40;81.30
76537;DHT22;65381;51.254;15.592;2023-10-08T02:40:51;9.40;81.40
76537;DHT22;65381;51.254;15.592;2023-10-08T02:43:21;9.20;81.60
76537;DHT22;65381;51.254;15.592;2023-10-08T02:45:50;9.20;81.70
76537;DHT22;65381;51.254;15.592;2023-10-08T02:48:19;9.20;81.80
76537;DHT22;65381;51.254;15.592;2023-10-08T02:50:48;9.20;81.80
76537;DHT22;65381;51.254;15.592;2023-10-08T02:53:16;9.10;82.00
76537;DHT22;65381;51.254;15.592;2023-10-08T02:55:49;9.10;82.20
76537;DHT22;65381;51.254;15.592;2023-10-08T02:58:17;9.00;82.20
76537;DHT22;65381;51.254;15.592;2023-10-08T03:00:49;9.00;82.20
76537;DHT22;65381;51.254;15.592;2023-10-08T03:03:18;9.00;82.30
76537;DHT22;65381;51.254;15.592;2023-10-08T03:05:53;9.00;82.40
76537;DHT22;65381;51.254;15.592;2023-10-08T03:08:24;9.00;82.60
76537;DHT22;65381;51.254;15.592;2023-10-08T03:10:53;9.00;82.70
76537;DHT22;65381;51.254;15.592;2023-10-08T03:13:24;8.90;82.80
76537;DHT22;65381;51.254;15.592;2023-10-08T03:15:54;9.00;82.90
76537;DHT22;65381;51.254;15.592;2023-10-08T03:18:36;8.90;83.00
76537;DHT22;65381;51.254;15.592;2023-10-08T03:21:06;8.90;83.00
76537;DHT22;65381;51.254;15.592;2023-10-08T03:23:51;8.90;83.10
76537;DHT22;65381;51.254;15.592;2023-10-08T03:26:20;8.90;83.20
76537;DHT22;65381;51.254;15.592;2023-10-08T03:29:03;8.90;83.30
76537;DHT22;65381;51.254;15.592;2023-10-08T03:31:37;8.90;83.50
76537;DHT22;65381;51.254;15.592;2023-10-08T03:34:18;8.90;83.50
76537;DHT22;65381;51.254;15.592;2023-10-08T03:36:48;8.90;83.50
76537;DHT22;65381;51.254;15.592;2023-10-08T03:39:18;8.90;83.80
76537;DHT22;65381;51.254;15.592;2023-10-08T03:41:48;9.00;83.80
76537;DHT22;65381;51.254;15.592;2023-10-08T03:44:26;9.00;83.70
76537;DHT22;65381;51.254;15.592;2023-10-08T03:46:57;9.00;83.70
76537;DHT22;65381;51.254;15.592;2023-10-08T03:49:25;9.00;83.80
76537;DHT22;65381;51.254;15.592;2023-10-08T03:51:53;9.00;83.80
76537;DHT22;65381;51.254;15.592;2023-10-08T03:54:24;9.00;84.00
76537;DHT22;65381;51.254;15.592;2023-10-08T03:57:03;9.00;84.10
76537;DHT22;65381;51.254;15.592;2023-10-08T03:59:41;9.00;84.00
76537;DHT22;65381;51.254;15.592;2023-10-08T04:02:09;8.90;83.90
76537;DHT22;65381;51.254;15.592;2023-10-08T04:04:52;8.90;84.00
76537;DHT22;65381;51.254;15.592;2023-10-08T04:07:25;8.90;84.10
76537;DHT22;65381;51.254;15.592;2023-10-08T04:10:09;8.80;84.20
76537;DHT22;65381;51.254;15.592;2023-10-08T04:12:37;8.80;84.40
76537;DHT22;65381;51.254;15.592;2023-10-08T04:15:12;8.80;84.50
76537;DHT22;65381;51.254;15.592;2023-10-08T04:17:45;8.80;84.60
76537;DHT22;65381;51.254;15.592;2023-10-08T04:20:14;8.80;84.70
76537;DHT22;65381;51.254;15.592;2023-10-08T04:23:04;8.80;84.70
76537;DHT22;65381;51.254;15.592;2023-10-08T04:25:32;8.80;84.70
76537;DHT22;65381;51.254;15.592;2023-10-08T04:28:01;8.80;84.70
76537;DHT22;65381;51.254;15.592;2023-10-08T04:30:35;8.80;84.80
76537;DHT22;65381;51.254;15.592;2023-10-08T04:33:05;8.80;84.90
76537;DHT22;65381;51.254;15.592;2023-10-08T04:35:43;8.80;85.00
76537;DHT22;65381;51.254;15.592;2023-10-08T04:38:23;8.80;85.00
76537;DHT22;65381;51.254;15.592;2023-10-08T04:40:54;8.70;85.10
76537;DHT22;65381;51.254;15.592;2023-10-08T04:43:24;8.70;85.20
76537;DHT22;65381;51.254;15.592;2023-10-08T04:45:59;8.70;85.10
76537;DHT22;65381;51.254;15.592;2023-10-08T04:48:33;8.70;85.20
76537;DHT22;65381;51.254;15.592;2023-10-08T04:51:01;8.70;85.30
76537;DHT22;65381;51.254;15.592;2023-10-08T04:53:32;8.70;85.30
76537;DHT22;65381;51.254;15.592;2023-10-08T04:56:05;8.80;85.50
76537;DHT22;65381;51.254;15.592;2023-10-08T04:58:35;8.80;85.50
76537;DHT22;65381;51.254;15.592;2023-10-08T05:01:08;8.80;85.60
76537;DHT22;65381;51.254;15.592;2023-10-08T05:03:48;8.80;85.60
76537;DHT22;65381;51.254;15.592;2023-10-08T05:06:27;8.80;85.70
76537;DHT22;65381;51.254;15.592;2023-10-08T05:09:12;8.90;85.80
76537;DHT22;65381;51.254;15.592;2023-10-08T05:11:40;8.90;85.80
76537;DHT22;65381;51.254;15.592;2023-10-08T05:14:27;8.90;85.90
76537;DHT22;65381;51.254;15.592;2023-10-08T05:17:04;8.80;86.00
76537;DHT22;65381;51.254;15.592;2023-10-08T05:19:40;8.90;86.10
76537;DHT22;65381;51.254;15.592;2023-10-08T05:22:08;8.90;86.20
76537;DHT22;65381;51.254;15.592;2023-10-08T05:24:49;8.90;86.20
76537;DHT22;65381;51.254;15.592;2023-10-08T05:27:41;8.90;86.20
76537;DHT22;65381;51.254;15.592;2023-10-08T05:30:18;8.90;86.30
76537;DHT22;65381;51.254;15.592;2023-10-08T05:32:53;8.90;86.60
76537;DHT22;65381;51.254;15.592;2023-10-08T05:35:41;9.00;86.70
76537;DHT22;65381;51.254;15.592;2023-10-08T05:38:20;9.00;86.70
76537;DHT22;65381;51.254;15.592;2023-10-08T05:40:59;9.10;86.60
76537;DHT22;65381;51.254;15.592;2023-10-08T05:43:31;9.10;86.60
76537;DHT22;65381;51.254;15.592;2023-10-08T05:48:54;9.10;86.70
76537;DHT22;65381;51.254;15.592;2023-10-08T05:51:49;9.10;86.80
76537;DHT22;65381;51.254;15.592;2023-10-08T05:54:18;9.00;86.90
76537;DHT22;65381;51.254;15.592;2023-10-08T05:57:06;9.10;87.00
76537;DHT22;65381;51.254;15.592;2023-10-08T05:59:44;9.10;87.10
76537;DHT22;65381;51.254;15.592;2023-10-08T06:02:26;9.20;87.00
76537;DHT22;65381;51.254;15.592;2023-10-08T06:05:08;9.20;87.20
76537;DHT22;65381;51.254;15.592;2023-10-08T06:07:45;9.20;87.20
76537;DHT22;65381;51.254;15.592;2023-10-08T06:10:30;9.20;87.30
76537;DHT22;65381;51.254;15.592;2023-10-08T06:15:51;9.40;87.70
76537;DHT22;65381;51.254;15.592;2023-10-08T06:18:34;9.40;87.80
76537;DHT22;65381;51.254;15.592;2023-10-08T06:21:04;9.50;87.60
76537;DHT22;65381;51.254;15.592;2023-10-08T06:23:39;9.50;87.50
76537;DHT22;65381;51.254;15.592;2023-10-08T06:26:07;9.50;87.50
76537;DHT22;65381;51.254;15.592;2023-10-08T06:28:38;9.60;87.80
76537;DHT22;65381;51.254;15.592;2023-10-08T06:31:07;9.60;88.00
76537;DHT22;65381;51.254;15.592;2023-10-08T06:33:40;9.70;88.00
76537;DHT22;65381;51.254;15.592;2023-10-08T06:36:10;9.80;87.90
76537;DHT22;65381;51.254;15.592;2023-10-08T06:38:46;9.80;87.90
76537;DHT22;65381;51.254;15.592;2023-10-08T06:41:17;9.80;87.90
76537;DHT22;65381;51.254;15.592;2023-10-08T06:44:12;9.90;88.00
76537;DHT22;65381;51.254;15.592;2023-10-08T06:46:43;10.00;88.20
76537;DHT22;65381;51.254;15.592;2023-10-08T06:49:11;10.00;88.20
76537;DHT22;65381;51.254;15.592;2023-10-08T06:51:41;10.00;88.20
76537;DHT22;65381;51.254;15.592;2023-10-08T06:54:11;10.00;88.00
76537;DHT22;65381;51.254;15.592;2023-10-08T06:56:42;10.00;88.00
76537;DHT22;65381;51.254;15.592;2023-10-08T06:59:15;10.10;88.30
76537;DHT22;65381;51.254;15.592;2023-10-08T07:01:44;10.20;89.60
76537;DHT22;65381;51.254;15.592;2023-10-08T07:04:19;10.70;91.10
76537;DHT22;65381;51.254;15.592;2023-10-08T07:06:50;11.10;91.00
76537;DHT22;65381;51.254;15.592;2023-10-08T07:09:19;11.50;90.40
76537;DHT22;65381;51.254;15.592;2023-10-08T07:11:56;11.60;89.50
76537;DHT22;65381;51.254;15.592;2023-10-08T07:14:27;11.70;88.90
76537;DHT22;65381;51.254;15.592;2023-10-08T07:17:00;11.70;88.50
76537;DHT22;65381;51.254;15.592;2023-10-08T07:19:30;11.80;89.00
76537;DHT22;65381;51.254;15.592;2023-10-08T07:22:08;11.90;88.60
76537;DHT22;65381;51.254;15.592;2023-10-08T07:24:57;11.90;87.80
76537;DHT22;65381;51.254;15.592;2023-10-08T07:27:25;11.70;87.80
76537;DHT22;65381;51.254;15.592;2023-10-08T07:30:00;11.70;87.50
76537;DHT22;65381;51.254;15.592;2023-10-08T07:32:32;11.60;87.80
76537;DHT22;65381;51.254;15.592;2023-10-08T07:35:02;11.70;89.50
76537;DHT22;65381;51.254;15.592;2023-10-08T07:37:48;11.90;89.60
76537;DHT22;65381;51.254;15.592;2023-10-08T07:40:18;12.20;89.50
76537;DHT22;65381;51.254;15.592;2023-10-08T07:42:48;12.20;88.30
76537;DHT22;65381;51.254;15.592;2023-10-08T07:45:19;12.00;87.50
76537;DHT22;65381;51.254;15.592;2023-10-08T07:47:49;12.00;88.50
76537;DHT22;65381;51.254;15.592;2023-10-08T07:50:18;12.30;91.10
76537;DHT22;65381;51.254;15.592;2023-10-08T07:52:47;13.50;94.20
76537;DHT22;65381;51.254;15.592;2023-10-08T07:55:15;14.90;95.50
76537;DHT22;65381;51.254;15.592;2023-10-08T07:57:45;16.50;96.00
76537;DHT22;65381;51.254;15.592;2023-10-08T08:00:14;17.20;91.00
76537;DHT22;65381;51.254;15.592;2023-10-08T08:03:05;17.00;85.50
76537;DHT22;65381;51.254;15.592;2023-10-08T08:05:34;16.50;85.00
76537;DHT22;65381;51.254;15.592;2023-10-08T08:08:02;16.00;84.50
76537;DHT22;65381;51.254;15.592;2023-10-08T08:10:33;15.70;84.90
76537;DHT22;65381;51.254;15.592;2023-10-08T08:13:05;15.40;85.40
76537;DHT22;65381;51.254;15.592;2023-10-08T08:15:34;15.30;85.50
76537;DHT22;65381;51.254;15.592;2023-10-08T08:18:04;15.10;85.90
76537;DHT22;65381;51.254;15.592;2023-10-08T08:20:36;15.30;87.50
76537;DHT22;65381;51.254;15.592;2023-10-08T08:23:08;15.50;87.80
76537;DHT22;65381;51.254;15.592;2023-10-08T08:25:40;16.40;91.10
76537;DHT22;65381;51.254;15.592;2023-10-08T08:28:27;17.70;93.00
76537;DHT22;65381;51.254;15.592;2023-10-08T08:31:02;19.00;90.20
76537;DHT22;65381;51.254;15.592;2023-10-08T08:33:32;20.10;88.70
76537;DHT22;65381;51.254;15.592;2023-10-08T08:36:20;21.10;86.90
76537;DHT22;65381;51.254;15.592;2023-10-08T08:38:49;21.90;85.70
76537;DHT22;65381;51.254;15.592;2023-10-08T08:41:18;22.50;82.70
76537;DHT22;65381;51.254;15.592;2023-10-08T08:43:52;22.90;82.60
76537;DHT22;65381;51.254;15.592;2023-10-08T08:46:34;22.90;79.30
76537;DHT22;65381;51.254;15.592;2023-10-08T08:49:06;22.10;78.50
76537;DHT22;65381;51.254;15.592;2023-10-08T08:51:39;22.40;82.00
76537;DHT22;65381;51.254;15.592;2023-10-08T08:54:09;22.60;81.50
76537;DHT22;65381;51.254;15.592;2023-10-08T08:56:41;22.50;78.80
76537;DHT22;65381;51.254;15.592;2023-10-08T08:59:11;21.50;76.50
76537;DHT22;65381;51.254;15.592;2023-10-08T09:01:40;20.50;76.60
76537;DHT22;65381;51.254;15.592;2023-10-08T09:04:09;19.60;79.80
76537;DHT22;65381;51.254;15.592;2023-10-08T09:06:38;19.50;81.60
76537;DHT22;65381;51.254;15.592;2023-10-08T09:09:06;18.90;80.50
76537;DHT22;65381;51.254;15.592;2023-10-08T09:11:50;18.70;82.20
76537;DHT22;65381;51.254;15.592;2023-10-08T09:14:24;18.20;81.40
76537;DHT22;65381;51.254;15.592;2023-10-08T09:16:58;18.30;85.00
76537;DHT22;65381;51.254;15.592;2023-10-08T09:19:27;18.60;86.40
76537;DHT22;65381;51.254;15.592;2023-10-08T09:22:11;19.70;89.60
76537;DHT22;65381;51.254;15.592;2023-10-08T09:24:41;20.90;88.30
76537;DHT22;65381;51.254;15.592;2023-10-08T09:27:10;21.70;84.50
76537;DHT22;65381;51.254;15.592;2023-10-08T09:29:42;22.10;83.70
76537;DHT22;65381;51.254;15.592;2023-10-08T09:32:12;22.70;85.00
76537;DHT22;65381;51.254;15.592;2023-10-08T09:34:52;23.60;85.60
76537;DHT22;65381;51.254;15.592;2023-10-08T09:37:21;24.60;83.80
76537;DHT22;65381;51.254;15.592;2023-10-08T09:39:49;25.50;83.70
76537;DHT22;65381;51.254;15.592;2023-10-08T09:42:19;26.40;81.50
76537;DHT22;65381;51.254;15.592;2023-10-08T09:44:50;26.80;80.90
76537;DHT22;65381;51.254;15.592;2023-10-08T09:47:21;26.90;77.30
76537;DHT22;65381;51.254;15.592;2023-10-08T09:50:03;26.40;76.50
76537;DHT22;65381;51.254;15.592;2023-10-08T09:52:42;26.30;78.30
76537;DHT22;65381;51.254;15.592;2023-10-08T09:55:12;25.60;75.00
76537;DHT22;65381;51.254;15.592;2023-10-08T09:57:42;24.50;75.90
76537;DHT22;65381;51.254;15.592;2023-10-08T10:00:10;24.00;77.40
76537;DHT22;65381;51.254;15.592;2023-10-08T10:02:43;23.60;80.90
76537;DHT22;65381;51.254;15.592;2023-10-08T10:05:12;24.20;81.40
76537;DHT22;65381;51.254;15.592;2023-10-08T10:07:41;24.70;81.00
76537;DHT22;65381;51.254;15.592;2023-10-08T10:10:29;25.00;79.70
76537;DHT22;65381;51.254;15.592;2023-10-08T10:13:08;25.60;81.60
76537;DHT22;65381;51.254;15.592;2023-10-08T10:15:37;26.40;79.20
76537;DHT22;65381;51.254;15.592;2023-10-08T10:18:13;26.80;79.00
76537;DHT22;65381;51.254;15.592;2023-10-08T10:20:52;27.80;78.40
76537;DHT22;65381;51.254;15.592;2023-10-08T10:23:37;28.70;76.60
76537;DHT22;65381;51.254;15.592;2023-10-08T10:26:26;29.20;75.00
76537;DHT22;65381;51.254;15.592;2023-10-08T10:31:47;29.40;72.30
76537;DHT22;65381;51.254;15.592;2023-10-08T10:34:25;29.00;71.10
76537;DHT22;65381;51.254;15.592;2023-10-08T10:36:58;28.60;72.20
76537;DHT22;65381;51.254;15.592;2023-10-08T10:39:27;29.20;72.50
76537;DHT22;65381;51.254;15.592;2023-10-08T10:41:57;28.90;70.70
76537;DHT22;65381;51.254;15.592;2023-10-08T10:44:30;28.90;71.30
76537;DHT22;65381;51.254;15.592;2023-10-08T10:47:00;28.90;69.60
76537;DHT22;65381;51.254;15.592;2023-10-08T10:49:45;28.60;69.60
76537;DHT22;65381;51.254;15.592;2023-10-08T10:52:25;28.30;68.50
76537;DHT22;65381;51.254;15.592;2023-10-08T10:55:04;28.10;69.40
76537;DHT22;65381;51.254;15.592;2023-10-08T10:57:48;27.90;67.10
76537;DHT22;65381;51.254;15.592;2023-10-08T11:00:26;28.10;68.00
76537;DHT22;65381;51.254;15.592;2023-10-08T11:03:02;28.50;67.50
76537;DHT22;65381;51.254;15.592;2023-10-08T11:05:33;28.90;67.80
76537;DHT22;65381;51.254;15.592;2023-10-08T11:08:06;29.50;67.20
76537;DHT22;65381;51.254;15.592;2023-10-08T11:10:39;29.80;66.40
76537;DHT22;65381;51.254;15.592;2023-10-08T11:13:08;29.90;66.20
76537;DHT22;65381;51.254;15.592;2023-10-08T11:15:44;30.20;66.00
76537;DHT22;65381;51.254;15.592;2023-10-08T11:18:22;30.50;64.90
76537;DHT22;65381;51.254;15.592;2023-10-08T11:20:52;30.70;63.90
76537;DHT22;65381;51.254;15.592;2023-10-08T11:23:37;30.80;63.10
76537;DHT22;65381;51.254;15.592;2023-10-08T11:26:06;30.80;62.50
76537;DHT22;65381;51.254;15.592;2023-10-08T11:28:35;30.60;61.90
76537;DHT22;65381;51.254;15.592;2023-10-08T11:31:10;30.60;61.50
76537;DHT22;65381;51.254;15.592;2023-10-08T11:33:44;30.20;62.20
76537;DHT22;65381;51.254;15.592;2023-10-08T11:36:24;29.50;60.90
76537;DHT22;65381;51.254;15.592;2023-10-08T11:39:11;29.40;59.50
76537;DHT22;65381;51.254;15.592;2023-10-08T11:42:02;29.00;58.70
76537;DHT22;65381;51.254;15.592;2023-10-08T11:44:44;28.50;57.00
76537;DHT22;65381;51.254;15.592;2023-10-08T11:47:12;28.50;57.10
76537;DHT22;65381;51.254;15.592;2023-10-08T11:49:49;28.10;56.90
76537;DHT22;65381;51.254;15.592;2023-10-08T11:52:38;27.90;56.50
76537;DHT22;65381;51.254;15.592;2023-10-08T11:55:12;28.10;56.10
76537;DHT22;65381;51.254;15.592;2023-10-08T11:57:49;28.50;55.70
76537;DHT22;65381;51.254;15.592;2023-10-08T12:00:18;28.70;54.50
76537;DHT22;65381;51.254;15.592;2023-10-08T12:02:59;28.40;54.60
76537;DHT22;65381;51.254;15.592;2023-10-08T12:05:30;28.70;53.90
76537;DHT22;65381;51.254;15.592;2023-10-08T12:08:00;28.90;53.20
76537;DHT22;65381;51.254;15.592;2023-10-08T12:10:28;29.20;52.90
76537;DHT22;65381;51.254;15.592;2023-10-08T12:12:59;29.40;50.70
76537;DHT22;65381;51.254;15.592;2023-10-08T12:15:27;28.60;50.10
76537;DHT22;65381;51.254;15.592;2023-10-08T12:18:07;27.70;50.10
76537;DHT22;65381;51.254;15.592;2023-10-08T12:20:52;27.50;50.60
76537;DHT22;65381;51.254;15.592;2023-10-08T12:23:22;28.00;50.10
76537;DHT22;65381;51.254;15.592;2023-10-08T12:25:54;28.10;49.70
76537;DHT22;65381;51.254;15.592;2023-10-08T12:28:24;28.30;49.40
76537;DHT22;65381;51.254;15.592;2023-10-08T12:30:52;28.50;49.40
76537;DHT22;65381;51.254;15.592;2023-10-08T12:33:22;28.60;48.70
76537;DHT22;65381;51.254;15.592;2023-10-08T12:35:52;28.30;48.40
76537;DHT22;65381;51.254;15.592;2023-10-08T12:38:23;28.00;48.50
76537;DHT22;65381;51.254;15.592;2023-10-08T12:40:55;28.00;48.60
76537;DHT22;65381;51.254;15.592;2023-10-08T12:43:24;28.30;48.40
76537;DHT22;65381;51.254;15.592;2023-10-08T12:45:56;28.30;47.30
76537;DHT22;65381;51.254;15.592;2023-10-08T12:48:26;28.00;47.30
76537;DHT22;65381;51.254;15.592;2023-10-08T12:50:56;27.80;47.20
76537;DHT22;65381;51.254;15.592;2023-10-08T12:53:28;27.50;47.10
76537;DHT22;65381;51.254;15.592;2023-10-08T12:56:05;27.20;47.50
76537;DHT22;65381;51.254;15.592;2023-10-08T12:58:36;27.40;47.70
76537;DHT22;65381;51.254;15.592;2023-10-08T13:01:12;27.90;47.20
76537;DHT22;65381;51.254;15.592;2023-10-08T13:03:42;28.00;46.80
76537;DHT22;65381;51.254;15.592;2023-10-08T13:06:10;27.50;46.50
76537;DHT22;65381;51.254;15.592;2023-10-08T13:08:43;26.90;46.90
76537;DHT22;65381;51.254;15.592;2023-10-08T13:11:12;26.60;46.60
76537;DHT22;65381;51.254;15.592;2023-10-08T13:13:41;26.20;46.70
76537;DHT22;65381;51.254;15.592;2023-10-08T13:16:09;26.10;46.80
76537;DHT22;65381;51.254;15.592;2023-10-08T13:18:38;25.80;46.10
76537;DHT22;65381;51.254;15.592;2023-10-08T13:21:11;24.70;45.80
76537;DHT22;65381;51.254;15.592;2023-10-08T13:23:40;23.70;47.00
76537;DHT22;65381;51.254;15.592;2023-10-08T13:26:09;23.30;46.90
76537;DHT22;65381;51.254;15.592;2023-10-08T13:28:39;22.30;47.20
76537;DHT22;65381;51.254;15.592;2023-10-08T13:31:08;21.80;47.60
76537;DHT22;65381;51.254;15.592;2023-10-08T13:33:42;21.50;47.80
76537;DHT22;65381;51.254;15.592;2023-10-08T13:36:12;21.70;47.90
76537;DHT22;65381;51.254;15.592;2023-10-08T13:38:48;22.20;47.80
76537;DHT22;65381;51.254;15.592;2023-10-08T13:41:17;22.80;47.10
76537;DHT22;65381;51.254;15.592;2023-10-08T13:43:48;23.20;46.80
76537;DHT22;65381;51.254;15.592;2023-10-08T13:46:20;23.40;46.30
76537;DHT22;65381;51.254;15.592;2023-10-08T13:48:53;23.20;46.10
76537;DHT22;65381;51.254;15.592;2023-10-08T13:51:22;23.20;46.40
76537;DHT22;65381;51.254;15.592;2023-10-08T13:53:56;23.10;46.10
76537;DHT22;65381;51.254;15.592;2023-10-08T13:56:29;23.10;46.20
76537;DHT22;65381;51.254;15.592;2023-10-08T13:59:01;22.70;45.70
76537;DHT22;65381;51.254;15.592;2023-10-08T14:01:42;21.90;45.70
76537;DHT22;65381;51.254;15.592;2023-10-08T14:04:15;21.40;46.40
76537;DHT22;65381;51.254;15.592;2023-10-08T14:06:48;21.20;46.50
76537;DHT22;65381;51.254;15.592;2023-10-08T14:09:22;21.00;46.60
76537;DHT22;65381;51.254;15.592;2023-10-08T14:12:00;20.70;46.50
76537;DHT22;65381;51.254;15.592;2023-10-08T14:14:29;20.50;46.60
76537;DHT22;65381;51.254;15.592;2023-10-08T14:17:00;20.30;46.50
76537;DHT22;65381;51.254;15.592;2023-10-08T14:19:38;20.10;46.60
76537;DHT22;65381;51.254;15.592;2023-10-08T14:22:28;20.00;46.60
76537;DHT22;65381;51.254;15.592;2023-10-08T14:24:57;20.10;46.70
76537;DHT22;65381;51.254;15.592;2023-10-08T14:27:30;20.20;46.50
76537;DHT22;65381;51.254;15.592;2023-10-08T14:30:01;20.10;46.20
76537;DHT22;65381;51.254;15.592;2023-10-08T14:32:33;19.80;46.50
76537;DHT22;65381;51.254;15.592;2023-10-08T14:35:04;19.70;46.10
76537;DHT22;65381;51.254;15.592;2023-10-08T14:37:51;19.20;46.40
76537;DHT22;65381;51.254;15.592;2023-10-08T14:40:40;18.50;46.70
76537;DHT22;65381;51.254;15.592;2023-10-08T14:43:28;17.80;47.20
76537;DHT22;65381;51.254;15.592;2023-10-08T14:46:01;17.20;47.40
76537;DHT22;65381;51.254;15.592;2023-10-08T14:48:33;16.70;47.30
76537;DHT22;65381;51.254;15.592;2023-10-08T14:51:06;16.10;47.30
76537;DHT22;65381;51.254;15.592;2023-10-08T14:53:45;15.50;47.40
76537;DHT22;65381;51.254;15.592;2023-10-08T14:56:15;15.00;47.50
76537;DHT22;65381;51.254;15.592;2023-10-08T14:58:44;14.60;47.60
76537;DHT22;65381;51.254;15.592;2023-10-08T15:01:13;14.30;47.60
76537;DHT22;65381;51.254;15.592;2023-10-08T15:03:42;14.10;47.70
76537;DHT22;65381;51.254;15.592;2023-10-08T15:06:13;13.90;47.60
76537;DHT22;65381;51.254;15.592;2023-10-08T15:08:42;13.80;47.60
76537;DHT22;65381;51.254;15.592;2023-10-08T15:11:12;13.60;47.60
76537;DHT22;65381;51.254;15.592;2023-10-08T15:13:41;13.50;47.60
76537;DHT22;65381;51.254;15.592;2023-10-08T15:16:14;13.30;47.70
76537;DHT22;65381;51.254;15.592;2023-10-08T15:18:43;13.20;47.70
76537;DHT22;65381;51.254;15.592;2023-10-08T15:21:13;13.10;47.80
76537;DHT22;65381;51.254;15.592;2023-10-08T15:23:42;13.00;47.80
76537;DHT22;65381;51.254;15.592;2023-10-08T15:26:11;12.90;47.80
76537;DHT22;65381;51.254;15.592;2023-10-08T15:28:41;12.80;47.90
76537;DHT22;65381;51.254;15.592;2023-10-08T15:31:09;12.70;47.90
76537;DHT22;65381;51.254;15.592;2023-10-08T15:33:38;12.60;48.00
76537;DHT22;65381;51.254;15.592;2023-10-08T15:36:08;12.50;48.00
76537;DHT22;65381;51.254;15.592;2023-10-08T15:38:39;12.50;48.20
76537;DHT22;65381;51.254;15.592;2023-10-08T15:41:09;12.30;48.30
76537;DHT22;65381;51.254;15.592;2023-10-08T15:43:39;12.30;48.40
76537;DHT22;65381;51.254;15.592;2023-10-08T15:46:08;12.20;48.50
76537;DHT22;65381;51.254;15.592;2023-10-08T15:48:37;12.00;48.60
76537;DHT22;65381;51.254;15.592;2023-10-08T15:51:06;11.90;48.70
76537;DHT22;65381;51.254;15.592;2023-10-08T15:53:35;11.90;48.70
76537;DHT22;65381;51.254;15.592;2023-10-08T15:56:05;11.80;48.80
76537;DHT22;65381;51.254;15.592;2023-10-08T15:58:34;11.70;48.90
76537;DHT22;65381;51.254;15.592;2023-10-08T16:01:03;11.70;49.00
76537;DHT22;65381;51.254;15.592;2023-10-08T16:03:34;11.50;49.10
76537;DHT22;65381;51.254;15.592;2023-10-08T16:06:03;11.50;49.20